Latest Weather Observations for Albury

IDN60801

Issued at 6:53 am EDT Thursday 8 December 2022 (issued every 10 minutes, with the page automatically refreshed every 10 minutes)

About weather observations | Map of weather stations | Latest weather observations for NSW | Other Formats
Station Details ID: 072160 Name: ALBURY AIRPORT AWS Lat: -36.07 Lon: 146.95 Height: 163.5 m
Data from the previous 72 hours. | See also: Recent months at Albury
Date/Time
EDT
Temp
°C
App
Temp
°C
Dew
Point
°C
Rel
Hum
%
Delta-T
°C
Wind Press
QNH
hPa
Press
MSL
hPa
Rain since
9am
mm
Dir  Spd
km/h
Gust
km/h
Spd
kts
Gust
kts
08/06:30am 9.5 3.7 4.3 70 2.3 WSW 24 35 13 19 1009.1 1008.5 0.0
08/06:00am 9.0 3.9 4.2 72 2.1 WSW 20 24 11 13 1008.9 1008.3 0.0
08/05:30am 9.2 4.1 4.2 71 2.2 WSW 20 28 11 15 1008.4 1007.8 0.0
08/05:00am 9.5 3.3 4.3 70 2.3 W 26 33 14 18 1007.8 1007.2 0.0
08/04:30am 9.7 3.5 4.5 70 2.3 WSW 26 35 14 19 1007.5 1006.9 0.0
08/04:00am 10.0 4.2 4.6 69 2.4 WSW 24 37 13 20 1007.2 1006.6 0.0
08/03:30am 10.5 4.5 5.3 70 2.4 W 26 37 14 20 1007.1 1006.5 0.0
08/03:00am 11.0 5.4 5.5 69 2.6 W 24 33 13 18 1006.9 1006.3 0.0
08/02:30am 11.5 6.3 5.6 67 2.8 W 22 30 12 16 1006.8 1006.2 0.0
08/02:00am 11.9 7.1 5.5 65 3.0 W 20 26 11 14 1006.8 1006.2 0.0
08/01:30am 12.7 7.2 5.8 63 3.3 WSW 24 37 13 20 1006.6 1006.0 0.0
08/01:00am 13.4 7.7 6.5 63 3.3 SW 26 35 14 19 1006.4 1005.8 0.0
08/12:30am 14.4 9.3 7.7 64 3.3 WSW 24 35 13 19 1006.2 1005.6 0.0
08/12:00am 15.2 10.0 7.3 59 3.9 SW 24 39 13 21 1006.0 1005.3 0.0
 
Date/Time
EDT
Temp
°C
App
Temp
°C
Dew
Point
°C
Rel
Hum
%
Delta-T
°C
Wind Press
QNH
hPa
Press
MSL
hPa
Rain since
9am
mm
Dir  Spd
km/h
Gust
km/h
Spd
kts
Gust
kts
07/11:30pm 15.9 11.5 7.4 57 4.3 SW 20 32 11 17 1005.5 1004.8 0.0
07/11:00pm 16.3 12.0 7.8 57 4.3 WSW 20 30 11 16 1004.8 1004.1 0.0
07/10:30pm 17.2 12.5 9.1 59 4.2 WSW 24 37 13 20 1004.3 1003.6 0.0
07/10:04pm 18.4 13.2 10.3 59 4.4 WSW 28 46 15 25 1003.7 1003.0 0.0
07/10:00pm 18.3 13.5 10.2 59 4.4 WSW 26 35 14 19 1003.7 1003.0 0.0
07/09:46pm 19.2 13.3 10.5 57 4.7 WSW 32 52 17 28 1003.2 1002.5 0.0
07/09:30pm 19.8 15.4 11.6 59 4.6 WSW 26 41 14 22 1002.5 1001.9 0.0
07/09:00pm 20.8 16.2 12.2 58 4.9 WSW 28 39 15 21 1001.5 1000.9 0.0
07/08:30pm 22.1 16.5 11.5 51 6.0 WSW 32 46 17 25 1000.9 1000.3 0.0
07/08:27pm 22.3 16.5 10.8 48 6.4 W 32 46 17 25 1000.8 1000.2 0.0
07/08:00pm 23.1 19.0 8.8 40 7.7 W 20 28 11 15 1000.3 999.6 0.0
07/07:30pm 24.3 20.2 8.7 37 8.4 W 20 28 11 15 1000.0 999.3 0.0
07/07:00pm 24.8 19.9 8.3 35 8.9 W 24 33 13 18 999.7 999.0 0.0
07/06:30pm 25.2 19.0 7.8 33 9.3 W 30 39 16 21 999.5 998.8 0.0
07/06:00pm 25.7 21.4 9.5 36 9.0 WNW 22 32 12 17 999.5 998.8 0.0
07/05:30pm 26.0 22.4 9.8 36 9.0 WNW 19 30 10 16 999.8 999.1 0.0
07/05:00pm 26.5 23.2 8.0 31 10.1 NW 15 20 8 11 1000.2 999.5 0.0
07/04:30pm 26.3 23.4 9.6 35 9.3 NW 15 22 8 12 1000.7 1000.0 0.0
07/04:00pm 25.6 21.7 8.6 34 9.3 W 19 28 10 15 1001.2 1000.6 0.0
07/03:30pm 25.5 21.3 7.6 32 9.6 W 19 28 10 15 1001.4 1000.8 0.0
07/03:00pm 25.4 21.0 6.6 30 9.9 W 19 28 10 15 1001.7 1001.1 0.0
07/02:30pm 25.9 22.5 9.3 35 9.2 WNW 17 26 9 14 1002.2 1001.6 0.0
07/02:00pm 26.0 22.9 7.1 30 10.1 NW 13 19 7 10 1002.5 1001.9 0.0
07/01:30pm 24.8 20.2 6.5 31 9.5 WSW 20 28 11 15 1003.2 1002.5 0.0
07/01:00pm 24.6 20.6 6.8 32 9.4 WNW 17 24 9 13 1003.6 1002.9 0.0
07/12:30pm 24.9 21.2 6.1 30 9.7 NW 15 26 8 14 1003.8 1003.1 0.0
07/12:00pm 24.7 21.0 7.8 34 9.1 NW 17 24 9 13 1004.2 1003.5 0.0
07/11:30am 24.7 21.1 8.2 35 8.9 NNW 17 24 9 13 1004.4 1003.7 0.0
07/11:00am 24.0 21.0 9.2 39 8.1 NW 15 22 8 12 1004.7 1004.0 0.0
07/10:30am 23.2 21.4 9.6 42 7.4 N 9 17 5 9 1004.8 1004.1 0.0
07/10:00am 22.1 22.1 12.4 54 5.6 N 4 13 2 7 1005.1 1004.4 0.0
07/09:30am 20.3 20.8 15.1 72 3.1 S 6 9 3 5 1005.5 1004.8 0.0
07/09:00am 19.9 20.1 14.7 72 3.1 ESE 7 13 4 7 1005.6 1004.9 0.0
07/08:30am 18.2 18.2 14.1 77 2.4 E 7 11 4 6 1005.8 1005.1 0.0
07/08:00am 16.9 17.4 14.0 83 1.7 ESE 4 7 2 4 1005.6 1004.9 0.0
07/07:30am 14.1 15.1 13.1 94 0.6 CALM 0 0 0 0 1005.5 1004.8 0.0
07/07:00am 13.9 14.9 13.3 96 0.3 CALM 0 0 0 0 1005.4 1004.7 0.0
07/06:30am 12.7 13.0 12.2 97 0.3 NE 2 6 1 3 1005.2 1004.5 0.0
07/06:00am 13.0 12.5 12.2 95 0.4 SSE 6 7 3 4 1005.1 1004.4 0.0
07/05:30am 12.8 12.3 11.9 94 0.5 ESE 6 6 3 3 1005.0 1004.3 0.0
07/05:00am 13.5 14.2 12.2 92 0.7 CALM 0 0 0 0 1005.0 1004.3 0.0
07/04:30am 13.9 13.4 12.1 89 1.0 ENE 6 7 3 4 1005.0 1004.3 0.0
07/04:00am 13.7 14.3 11.9 89 1.0 CALM 0 0 0 0 1005.1 1004.4 0.0
07/03:30am 13.6 13.2 12.5 93 0.6 SSE 6 9 3 5 1005.1 1004.4 0.0
07/03:00am 13.1 13.5 12.6 97 0.3 SE 2 9 1 5 1005.3 1004.6 0.0
07/02:30am 13.4 13.7 10.9 85 1.3 CALM 0 0 0 0 1005.3 1004.6 0.0
07/02:00am 13.0 13.2 10.5 85 1.3 CALM 0 0 0 0 1005.4 1004.7 0.0
07/01:30am 13.5 13.8 10.9 84 1.4 CALM 0 0 0 0 1005.6 1004.9 0.0
07/01:00am 14.9 15.0 10.3 74 2.4 CALM 0 0 0 0 1005.6 1004.9 0.0
07/12:30am 14.9 15.1 10.5 75 2.3 CALM 0 0 0 0 1005.8 1005.1 0.0
07/12:00am 15.5 15.8 10.9 74 2.5 CALM 0 0 0 0 1006.0 1005.3 0.0
 
Date/Time
EDT
Temp
°C
App
Temp
°C
Dew
Point
°C
Rel
Hum
%
Delta-T
°C
Wind Press
QNH
hPa
Press
MSL
hPa
Rain since
9am
mm
Dir  Spd
km/h
Gust
km/h
Spd
kts
Gust
kts
06/11:30pm 16.0 16.2 10.7 71 2.8 CALM 0 0 0 0 1006.1 1005.4 0.0
06/11:00pm 16.8 15.8 10.9 68 3.2 ENE 7 11 4 6 1006.2 1005.6 0.0
06/10:30pm 18.0 16.2 9.4 57 4.5 WSW 9 11 5 6 1006.5 1005.9 0.0
06/10:00pm 18.0 16.3 9.9 59 4.3 W 9 11 5 6 1006.4 1005.8 0.0
06/09:30pm 18.4 16.2 9.5 56 4.7 W 11 15 6 8 1006.2 1005.6 0.0
06/09:00pm 19.0 16.8 9.5 54 5.1 WNW 11 13 6 7 1005.8 1005.1 0.0
06/08:30pm 20.7 17.9 8.7 46 6.4 W 13 19 7 10 1005.7 1005.0 0.0
06/08:00pm 22.4 18.3 7.8 39 7.7 WSW 19 26 10 14 1005.4 1004.7 0.0
06/07:30pm 23.5 19.4 8.0 37 8.2 W 19 24 10 13 1005.3 1004.6 0.0
06/07:00pm 24.3 21.1 8.3 36 8.6 WSW 15 20 8 11 1005.1 1004.4 0.0
06/06:30pm 24.3 21.4 8.3 36 8.6 WNW 13 20 7 11 1005.0 1004.3 0.0
06/06:00pm 24.7 22.1 7.8 34 9.0 W 11 20 6 11 1004.9 1004.2 0.0
06/05:30pm 25.4 21.6 9.7 37 8.7 WNW 20 33 11 18 1005.1 1004.4 0.0
06/05:00pm 25.5 21.7 9.7 37 8.8 W 20 32 11 17 1005.3 1004.6 0.0
06/04:30pm 25.3 22.5 10.0 38 8.5 W 15 26 8 14 1005.5 1004.8 0.0
06/04:00pm 24.9 21.8 10.4 40 8.1 WNW 17 28 9 15 1005.8 1005.1 0.0
06/03:30pm 24.6 21.2 10.5 41 7.9 WSW 19 28 10 15 1006.0 1005.3 0.0
06/03:00pm 24.4 21.2 9.9 40 8.0 WSW 17 28 9 15 1006.3 1005.7 0.0
06/02:30pm 24.0 20.8 9.9 41 7.8 WSW 17 24 9 13 1006.5 1005.9 0.0
06/02:00pm 23.7 20.7 10.7 44 7.3 W 17 28 9 15 1006.8 1006.2 0.0
06/01:30pm 23.6 22.5 12.0 48 6.6 SW 9 22 5 12 1007.1 1006.5 0.0
06/01:00pm 21.9 19.7 10.7 49 6.2 NNW 13 24 7 13 1007.5 1006.9 0.0
06/12:30pm 22.5 20.6 11.9 51 6.0 NW 13 22 7 12 1007.9 1007.3 0.0
06/12:00pm 21.1 19.4 10.0 49 6.1 SSE 9 17 5 9 1008.2 1007.6 0.0
06/11:30am 21.6 20.1 10.7 50 6.0 ESE 9 15 5 8 1008.4 1007.8 0.0
06/11:00am 20.5 18.5 10.3 52 5.6 SE 11 20 6 11 1008.6 1008.0 0.0
06/10:30am 20.3 17.7 10.7 54 5.3 SSE 15 20 8 11 1008.7 1008.1 0.0
06/10:00am 20.4 18.0 11.3 56 5.1 SE 15 22 8 12 1008.9 1008.3 0.0
06/09:30am 19.9 17.5 11.4 58 4.7 SE 15 24 8 13 1009.0 1008.4 0.0
06/09:00am 18.1 17.3 12.8 71 3.0 S 9 13 5 7 1009.1 1008.5 0.0
06/08:30am 17.2 16.7 11.9 71 2.9 S 6 9 3 5 1009.1 1008.5 0.0
06/08:00am 15.9 15.8 13.2 84 1.5 SSW 6 9 3 5 1008.8 1008.2 0.0
06/07:30am 14.8 15.8 13.3 91 0.8 CALM 0 0 0 0 1008.6 1008.0 0.0
06/07:00am 13.0 13.8 12.4 96 0.3 CALM 0 0 0 0 1008.4 1007.8 0.0
06/06:30am 11.0 11.2 10.7 98 0.2 CALM 0 0 0 0 1008.2 1007.6 0.0
06/06:00am 10.4 10.5 10.1 98 0.2 CALM 0 0 0 0 1008.0 1007.4 0.0
06/05:30am 10.3 10.0 10.0 98 0.2 WNW 2 6 1 3 1007.9 1007.3 0.0
06/05:00am 10.5 10.3 10.3 99 0.1 NNW 2 7 1 4 1007.6 1007.0 0.0
06/04:30am 11.0 11.2 10.5 97 0.3 CALM 0 0 0 0 1007.4 1006.8 0.0
06/04:00am 10.6 10.6 9.8 95 0.4 CALM 0 0 0 0 1007.3 1006.7 0.0
06/03:30am 10.8 10.9 10.2 96 0.3 CALM 0 0 0 0 1007.2 1006.6 0.0
06/03:00am 11.2 11.3 10.3 94 0.5 CALM 0 0 0 0 1007.0 1006.4 0.0
06/02:30am 11.7 11.9 10.4 92 0.7 CALM 0 0 0 0 1006.9 1006.3 0.0
06/02:00am 11.9 10.9 10.3 90 0.8 N 6 7 3 4 1007.1 1006.5 0.0
06/01:30am 12.6 11.7 10.7 88 1.0 NE 6 9 3 5 1007.2 1006.6 0.0
06/01:00am 13.0 12.5 10.9 87 1.1 N 4 7 2 4 1007.4 1006.8 0.0
06/12:30am 13.5 13.7 10.7 83 1.5 CALM 0 0 0 0 1007.5 1006.9 0.0
06/12:00am 13.8 12.8 11.0 83 1.5 WSW 7 11 4 6 1007.7 1007.1 0.0
 
Date/Time
EDT
Temp
°C
App
Temp
°C
Dew
Point
°C
Rel
Hum
%
Delta-T
°C
Wind Press
QNH
hPa
Press
MSL
hPa
Rain since
9am
mm
Dir  Spd
km/h
Gust
km/h
Spd
kts
Gust
kts
05/11:30pm 14.1 11.9 10.9 81 1.7 W 13 17 7 9 1007.9 1007.3 0.0
05/11:00pm 14.3 12.1 10.9 80 1.8 W 13 17 7 9 1007.9 1007.3 0.0
05/10:30pm 15.1 12.1 10.7 75 2.3 W 17 22 9 12 1008.1 1007.5 0.0
05/10:00pm 15.6 12.1 10.8 73 2.6 W 20 28 11 15 1008.0 1007.4 0.0
05/09:30pm 16.1 12.5 10.6 70 2.9 W 20 35 11 19 1007.7 1007.1 0.0
05/09:00pm 16.8 11.7 10.6 67 3.3 W 28 43 15 23 1007.2 1006.6 0.0
05/08:30pm 17.7 13.4 10.6 63 3.8 W 24 37 13 20 1007.0 1006.4 0.0
05/08:00pm 18.6 14.0 10.9 61 4.2 W 26 35 14 19 1006.8 1006.2 0.0
05/07:30pm 20.1 15.7 11.6 58 4.7 WSW 26 37 14 20 1006.5 1005.9 0.0
05/07:00pm 21.1 16.8 12.0 56 5.1 WSW 26 33 14 18 1006.1 1005.4 0.0
05/06:30pm 22.0 17.4 12.3 54 5.5 WSW 28 41 15 22 1005.8 1005.1 0.0
05/06:00pm 23.2 19.4 12.5 51 6.2 WSW 24 35 13 19 1005.2 1004.5 0.0
05/05:30pm 24.3 21.2 12.3 47 6.9 WSW 20 30 11 16 1004.8 1004.1 0.0
05/05:00pm 25.4 22.6 13.3 47 7.1 WSW 20 32 11 17 1004.9 1004.2 0.0
05/04:30pm 25.3 22.9 14.4 50 6.5 W 20 26 11 14 1005.1 1004.4 0.0
05/04:00pm 24.6 21.9 13.5 50 6.6 WNW 20 33 11 18 1005.2 1004.5 0.0
05/03:30pm 23.8 21.9 15.3 59 5.1 WNW 19 32 10 17 1005.5 1004.8 0.0
05/03:00pm 23.6 21.8 15.9 62 4.7 WNW 20 28 11 15 1005.9 1005.2 0.0
05/02:30pm 22.7 21.7 16.7 69 3.7 WNW 17 22 9 12 1006.3 1005.7 0.0
05/02:00pm 22.0 22.6 16.9 73 3.1 WNW 9 15 5 8 1006.3 1005.7 0.0
05/01:30pm 20.4 21.1 16.2 77 2.5 NNW 7 11 4 6 1006.6 1006.0 0.0
05/01:00pm 19.9 18.7 16.0 78 2.4 W 17 26 9 14 1007.3 1006.7 0.0
05/12:30pm 20.2 18.4 15.6 75 2.8 WNW 19 22 10 12 1007.4 1006.8 0.0
05/12:00pm 20.7 19.7 16.5 77 2.6 W 17 24 9 13 1007.0 1006.4 0.0
05/11:30am 20.8 19.6 16.2 75 2.8 W 17 20 9 11 1007.0 1006.4 0.0
05/11:00am 21.4 21.2 16.8 75 2.8 NW 13 19 7 10 1006.8 1006.2 0.0
05/10:30am 21.4 21.0 17.2 77 2.6 NW 15 20 8 11 1007.0 1006.4 0.0
05/10:00am 21.7 22.2 16.6 73 3.1 N 9 13 5 7 1006.3 1005.7 0.0
05/09:30am 21.7 22.2 16.6 73 3.1 N 9 17 5 9 1006.4 1005.8 0.0
05/09:00am 21.6 22.5 17.6 78 2.5 NW 9 15 5 8 1007.1 1006.5 0.0
05/08:30am 21.0 23.4 18.8 87 1.4 ENE 4 9 2 5 1006.9 1006.3 0.0
05/08:00am 19.6 21.4 18.3 92 0.8 ENE 6 9 3 5 1006.6 1006.0 0.0
05/07:30am 18.4 21.3 18.1 98 0.2 CALM 0 6 0 3 1006.9 1006.3 0.0
05/07:00am 18.0 20.3 17.7 98 0.2 ENE 2 7 1 4 1007.0 1006.4 0.0

Other formats

Comma delimited format used in spreadsheet applications
http://www.bom.gov.au/fwo/IDN60801/IDN60801.95896.axf

JavaScript Object Notation format (JSON) in row-major order
http://www.bom.gov.au/fwo/IDN60801/IDN60801.95896.json

Data quality

Most of these data are generated automatically and are frequently updated. Quality checks on data are not normally performed. It is possible for incorrect values to appear. Refer to information at About Latest Weather Observations and please check the disclaimer before using these data.